createdAt,value
2022-09-24T00:24:29.915Z,971.5
2022-09-24T00:54:31.927Z,971.1
2022-09-24T01:24:37.994Z,970.7
2022-09-24T01:54:48.795Z,970.7
2022-09-24T02:24:53.000Z,970.3
2022-09-24T02:54:56.000Z,970.3
2022-09-24T03:24:56.000Z,970.1
2022-09-24T03:55:02.000Z,970.1
2022-09-24T04:25:06.124Z,969.9
2022-09-24T04:55:10.000Z,969.8
2022-09-24T05:25:13.000Z,970.0
2022-09-24T05:55:13.222Z,970.2
2022-09-24T06:25:24.000Z,970.4
2022-09-24T06:55:28.044Z,970.4
2022-09-24T07:25:39.079Z,970.6
2022-09-24T07:55:39.195Z,970.8
2022-09-24T08:25:43.132Z,970.9
2022-09-24T08:55:50.177Z,970.9
2022-09-24T09:25:51.289Z,970.8
2022-09-24T09:55:59.158Z,970.7
2022-09-24T10:26:07.958Z,970.7
2022-09-24T10:56:09.876Z,970.2
2022-09-24T11:26:12.167Z,970.5
2022-09-24T11:56:15.032Z,970.1
2022-09-24T12:26:19.008Z,970
2022-09-24T12:56:22.004Z,970.1
2022-09-24T13:26:27.078Z,969.8
2022-09-24T13:56:35.997Z,969.6
2022-09-24T14:26:47.096Z,969.5
2022-09-24T14:56:56.984Z,969.3
2022-09-24T15:26:57.185Z,969.5
2022-09-24T15:57:01.120Z,969.2
2022-09-24T16:27:02.104Z,969.1
2022-09-24T16:57:04.046Z,969.3
2022-09-24T17:27:07.026Z,969.3
2022-09-24T17:57:14.035Z,969.6
2022-09-24T18:27:15.117Z,969.7
2022-09-24T18:57:18.310Z,969.9
2022-09-24T19:27:20.098Z,970.1
2022-09-24T19:57:20.158Z,970.1
2022-09-24T20:27:23.179Z,969.9
2022-09-24T20:57:25.216Z,970
2022-09-24T21:27:25.356Z,970
2022-09-24T21:57:26.217Z,970
2022-09-24T22:27:32.024Z,970
2022-09-24T22:57:34.139Z,970.3
2022-09-24T23:27:36.029Z,970.1
2022-09-24T23:57:37.128Z,969.9
